Home > Products > Valid Products > TAF

000
FTUS44 KSJT 222300
TAFSJT
TAF
KSJT 222334Z 2300/2324 14011KT P6SM SCT025
     FM230300 14010KT P6SM OVC015
     FM230600 17012KT P6SM OVC007
     FM231500 16014G21KT P6SM -SHRA OVC012
     FM232000 18011G20KT P6SM VCTS BKN030CB=



000
FTUS44 KSJT 222300
TAFJCT
TAF
KJCT 222334Z 2300/2324 14011KT P6SM SCT025
     FM230300 12010KT 5SM BR OVC010
     FM230500 14009KT 3SM -DZ BR OVC004
     FM231500 16011KT 6SM BR OVC008
     FM232100 17012G21KT P6SM VCTS BKN025CB=



000
FTUS44 KSJT 222300
TAFABI
TAF
KABI 222334Z 2300/2324 14011KT P6SM BKN015
     FM230400 14013KT P6SM OVC008
     FM230600 15013G19KT 6SM -DZ BR OVC005
     FM231600 16014G20KT P6SM VCSH OVC010
     FM231900 16015G21KT P6SM SHRA VCTS OVC020CB=



000
FTUS44 KSJT 222300
TAFSJT
TAF
KSJT 222334Z 2300/2324 14011KT P6SM SCT025
     FM230300 14010KT P6SM OVC015
     FM230600 17012KT P6SM OVC007
     FM231500 16014G21KT P6SM -SHRA OVC012
     FM232000 18011G20KT P6SM VCTS BKN030CB=



000
FTUS44 KSJT 222300
TAFJCT
TAF
KJCT 222334Z 2300/2324 14011KT P6SM SCT025
     FM230300 12010KT 5SM BR OVC010
     FM230500 14009KT 3SM -DZ BR OVC004
     FM231500 16011KT 6SM BR OVC008
     FM232100 17012G21KT P6SM VCTS BKN025CB=



000
FTUS44 KSJT 222300
TAFABI
TAF
KABI 222334Z 2300/2324 14011KT P6SM BKN015
     FM230400 14013KT P6SM OVC008
     FM230600 15013G19KT 6SM -DZ BR OVC005
     FM231600 16014G20KT P6SM VCSH OVC010
     FM231900 16015G21KT P6SM SHRA VCTS OVC020CB=



000
FTUS44 KSJT 221900 AAA
TAFSJT
TAF AMD
KSJT 221920Z 2219/2318 16011KT P6SM OVC025
     FM230200 16010KT P6SM OVC014
     FM230600 17012KT P6SM OVC007
     FM231500 16014G21KT P6SM -SHRA OVC012=



000
FTUS44 KSJT 221700
TAFABI
TAF
KABI 221732Z 2218/2318 14011KT 6SM -DZ BR VCSH OVC007
      TEMPO 2219/2221 OVC010
     FM222100 15012KT P6SM OVC012
     FM230200 14013KT P6SM OVC008
     FM230600 15014KT 6SM -DZ BR OVC005
     FM231600 16014G20KT P6SM VCSH OVC010=



000
FTUS44 KSJT 221700
TAFJCT
TAF
KJCT 221732Z 2218/2318 08007KT 6SM -DZ BR OVC009
      TEMPO 2218/2220 OVC012
     FM222000 10009KT P6SM OVC015
     FM230200 12010KT 4SM BR OVC008
     FM230500 14009KT 3SM -DZ BR OVC004
     FM231500 16011KT 6SM BR OVC008=



000
FTUS44 KSJT 221700
TAFSJT
TAF
KSJT 221732Z 2218/2318 11008KT P6SM OVC012
     FM222200 12012KT P6SM OVC020
     FM230100 13010KT P6SM OVC014
     FM230500 14012KT P6SM OVC007
     FM231500 16014G21KT P6SM VCSH OVC012=



000
FTUS44 KSJT 221700
TAFABI
TAF
KABI 221732Z 2218/2318 14011KT 6SM -DZ BR VCSH OVC007
      TEMPO 2219/2221 OVC010
     FM222100 15012KT P6SM OVC012
     FM230200 14013KT P6SM OVC008
     FM230600 15014KT 6SM -DZ BR OVC005
     FM231600 16014G20KT P6SM VCSH OVC010=



000
FTUS44 KSJT 221700
TAFSJT
TAF
KSJT 221732Z 2218/2318 11008KT P6SM OVC012
     FM222200 12012KT P6SM OVC020
     FM230100 13010KT P6SM OVC014
     FM230500 14012KT P6SM OVC007
     FM231500 16014G21KT P6SM VCSH OVC012=



000
FTUS44 KSJT 221700
TAFJCT
TAF
KJCT 221732Z 2218/2318 08007KT 6SM -DZ BR OVC009
      TEMPO 2218/2220 OVC012
     FM222000 10009KT P6SM OVC015
     FM230200 12010KT 4SM BR OVC008
     FM230500 14009KT 3SM -DZ BR OVC004
     FM231500 16011KT 6SM BR OVC008=



000
FTUS44 KSJT 221400 AAA
TAFABI
TAF AMD
KABI 221411Z 2214/2312 15008KT 6SM -DZ BR OVC004
     FM221600 14011KT 6SM BR VCSH OVC007
     FM222100 15012KT P6SM OVC015
     FM230100 15012KT P6SM OVC007=



000
FTUS44 KSJT 221400 AAA
TAFSJT
TAF AMD
KSJT 221411Z 2214/2312 10008KT 6SM BR OVC007
     FM222100 12011KT P6SM OVC015
     FM230100 12010KT P6SM OVC008
     FM230500 13013G20KT P6SM OVC004=



000
FTUS44 KSJT 221100
TAFJCT
TAF
KJCT 221133Z 2212/2312 08007KT 4SM BR OVC003
     FM221600 11008KT 5SM BR OVC007
     FM222100 13009KT P6SM OVC015
     FM230100 15010KT 4SM BR OVC004=



000
FTUS44 KSJT 221100
TAFSJT
TAF
KSJT 221133Z 2212/2312 12008KT 6SM BR OVC006
     FM222100 12011KT P6SM OVC015
     FM230100 12010KT P6SM OVC008
     FM230500 13013G20KT P6SM OVC004=



000
FTUS44 KSJT 221100
TAFABI
TAF
KABI 221133Z 2212/2312 24010KT 3SM BR OVC003
     FM221400 14011KT 6SM BR VCSH OVC007
     FM222100 15012KT P6SM OVC015
     FM230100 15012KT P6SM OVC007=



000
FTUS44 KSJT 221100
TAFABI
TAF
KABI 221133Z 2212/2312 24010KT 3SM BR OVC003
     FM221400 14011KT 6SM BR VCSH OVC007
     FM222100 15012KT P6SM OVC015
     FM230100 15012KT P6SM OVC007=



000
FTUS44 KSJT 221100
TAFSJT
TAF
KSJT 221133Z 2212/2312 12008KT 6SM BR OVC006
     FM222100 12011KT P6SM OVC015
     FM230100 12010KT P6SM OVC008
     FM230500 13013G20KT P6SM OVC004=



000
FTUS44 KSJT 221100
TAFJCT
TAF
KJCT 221133Z 2212/2312 08007KT 4SM BR OVC003
     FM221600 11008KT 5SM BR OVC007
     FM222100 13009KT P6SM OVC015
     FM230100 15010KT 4SM BR OVC004=



000
FTUS44 KSJT 221000 AAA
TAFABI
TAF AMD
KABI 221013Z 2210/2306 09010KT 5SM BR OVC006
     FM222100 13013KT P6SM OVC015=



000
FTUS44 KSJT 221000 AAA
TAFABI
TAF AMD
KABI 221013Z 2210/2306 09010KT 5SM BR OVC006
     FM222100 13013KT P6SM OVC015=



000
FTUS44 KSJT 221000 AAA
TAFSJT
TAF AMD
KSJT 221011Z 2210/2306 07008KT 5SM BR OVC002
     FM221600 12009KT P6SM OVC007
     FM222100 15012KT P6SM OVC015=



000
FTUS44 KSJT 221000 AAA
TAFJCT
TAF AMD
KJCT 221009Z 2210/2306 08007KT 5SM BR OVC002
     FM222100 14009KT P6SM OVC015=



000
FTUS44 KSJT 220500
TAFJCT
TAF
KJCT 220524Z 2206/2306 08007KT P6SM -DZ OVC009
     FM222100 14009KT P6SM OVC015=



000
FTUS44 KSJT 220500
TAFABI
TAF
KABI 220524Z 2206/2306 09010KT P6SM -DZ OVC008
     FM222100 13013KT P6SM OVC015=



000
FTUS44 KSJT 220500
TAFSJT
TAF
KSJT 220524Z 2206/2306 06008KT P6SM -DZ OVC008
     FM222100 11013KT P6SM OVC015=



000
FTUS44 KSJT 220500
TAFABI
TAF
KABI 220524Z 2206/2306 09010KT P6SM -DZ OVC008
     FM222100 13013KT P6SM OVC015=



000
FTUS44 KSJT 220500
TAFJCT
TAF
KJCT 220524Z 2206/2306 08007KT P6SM -DZ OVC009
     FM222100 14009KT P6SM OVC015=



000
FTUS44 KSJT 220500
TAFSJT
TAF
KSJT 220524Z 2206/2306 06008KT P6SM -DZ OVC008
     FM222100 11013KT P6SM OVC015=



000
FTUS44 KSJT 220400 AAB
TAFABI
TAF AMD
KABI 220442Z 2205/2224 09010KT P6SM -DZ OVC008
     FM222100 13013KT P6SM OVC015=



000
FTUS44 KSJT 220300 AAB
TAFJCT
TAF AMD
KJCT 220330Z 2204/2224 08008KT P6SM OVC009
     FM222100 14009KT P6SM OVC015=



000
FTUS44 KSJT 220300 AAB
TAFJCT
TAF AMD
KJCT 220330Z 2204/2224 08008KT P6SM OVC009
     FM222100 14009KT P6SM OVC015=



000
FTUS44 KSJT 220200 AAA
TAFJCT
TAF AMD
KJCT 220212Z 2202/2224 09010KT P6SM -DZ OVC013
     FM220600 05009KT 6SM -SHRA OVC007
     FM222100 14009KT P6SM OVC015=



000
FTUS44 KSJT 220200 AAA
TAFABI
TAF AMD
KABI 220210Z 2202/2224 09010KT P6SM OVC015
     FM220600 09008KT 5SM -DZ BR OVC006
     FM222100 13013KT P6SM OVC015=



000
FTUS44 KSJT 212300
TAFSJT
TAF
KSJT 212339Z 2200/2224 06008KT P6SM OVC021
     FM220300 06009KT 6SM BR OVC015
     FM220600 07008KT 6SM -SHRA BR OVC006
     FM222100 11013KT P6SM OVC015=



000
FTUS44 KSJT 212300
TAFABI
TAF
KABI 212339Z 2200/2224 06008KT P6SM OVC022
     FM220300 VRB06KT P6SM OVC015
     FM220600 09008KT 5SM -DZ BR OVC006
     FM222100 13013KT P6SM OVC015=



000
FTUS44 KSJT 212300
TAFJCT
TAF
KJCT 212339Z 2200/2224 04010KT 6SM -DZ BR OVC016
     FM220400 05009KT 6SM -SHRA OVC007
     FM222100 14009KT P6SM OVC015=



000
FTUS44 KSJT 212300 AAA
TAFSJT
TAF AMD
KSJT 212327Z 2123/2218 05008KT P6SM OVC021
     FM220200 06009KT 6SM BR OVC015
     FM220500 07008KT 6SM -SHRA BR OVC006
     FM221300 10010KT 6SM -DZ BR OVC008=



000
FTUS44 KSJT 212300 AAA
TAFSJT
TAF AMD
KSJT 212327Z 2123/2218 05008KT P6SM OVC021
     FM220200 06009KT 6SM BR OVC015
     FM220500 07008KT 6SM -SHRA BR OVC006
     FM221300 10010KT 6SM -DZ BR OVC008=



000
FTUS44 KSJT 212200 AAA
TAFSJT
TAF AMD
KSJT 212208Z 2122/2218 05010KT P6SM OVC018
     FM220200 06009KT 6SM BR OVC015
     FM220500 07008KT 6SM -SHRA BR OVC006
     FM221300 10010KT 6SM -DZ BR OVC008=



000
FTUS44 KSJT 212200 AAA
TAFSJT
TAF AMD
KSJT 212208Z 2122/2218 05010KT P6SM OVC018
     FM220200 06009KT 6SM BR OVC015
     FM220500 07008KT 6SM -SHRA BR OVC006
     FM221300 10010KT 6SM -DZ BR OVC008=



000
FTUS44 KSJT 212100 AAB
TAFABI
TAF AMD
KABI 212115Z 2121/2218 04008KT P6SM OVC022
     FM220400 09008KT 5SM -DZ BR OVC006=



000
FTUS44 KSJT 212100 AAB
TAFABI
TAF AMD
KABI 212115Z 2121/2218 04008KT P6SM OVC022
     FM220400 09008KT 5SM -DZ BR OVC006=



000
FTUS44 KSJT 211800 AAA
TAFABI
TAF AMD
KABI 211831Z 2119/2218 06010KT P6SM OVC015
     FM220400 09008KT 5SM -DZ BR OVC006=



000
FTUS44 KSJT 211800 AAA
TAFABI
TAF AMD
KABI 211831Z 2119/2218 06010KT P6SM OVC015
     FM220400 09008KT 5SM -DZ BR OVC006=



000
FTUS44 KSJT 211700
TAFSJT
TAF
KSJT 211722Z 2118/2218 05012G18KT P6SM OVC015
     FM212200 06011KT P6SM OVC022
     FM220200 06009KT 6SM BR OVC015
     FM220500 07008KT 6SM -SHRA BR OVC006
     FM221300 10010KT 6SM -DZ BR OVC008=



000
FTUS44 KSJT 211700
TAFABI
TAF
KABI 211722Z 2118/2218 04010G16KT P6SM OVC009
     FM211900 06010KT P6SM OVC012
     FM220400 09008KT 5SM -DZ BR OVC006=



000
FTUS44 KSJT 211700
TAFJCT
TAF
KJCT 211722Z 2118/2218 04010KT 6SM -DZ BR OVC008
     FM211900 05010KT P6SM BKN012
     FM220400 05009KT 6SM -SHRA OVC007=



000
FTUS44 KSJT 211700
TAFABI
TAF
KABI 211722Z 2118/2218 04010G16KT P6SM OVC009
     FM211900 06010KT P6SM OVC012
     FM220400 09008KT 5SM -DZ BR OVC006=



000
FTUS44 KSJT 211700
TAFSJT
TAF
KSJT 211722Z 2118/2218 05012G18KT P6SM OVC015
     FM212200 06011KT P6SM OVC022
     FM220200 06009KT 6SM BR OVC015
     FM220500 07008KT 6SM -SHRA BR OVC006
     FM221300 10010KT 6SM -DZ BR OVC008=



000
FTUS44 KSJT 211700
TAFJCT
TAF
KJCT 211722Z 2118/2218 04010KT 6SM -DZ BR OVC008
     FM211900 05010KT P6SM BKN012
     FM220400 05009KT 6SM -SHRA OVC007=



000
FTUS44 KSJT 211500 AAA
TAFJCT
TAF AMD
KJCT 211551Z 2116/2212 06010KT 6SM -DZ BR OVC007
     FM211700 06010KT 4SM -DZ BR OVC010
     FM211900 05010KT P6SM BKN015
     FM220100 05009KT 5SM -SHRA OVC015=



000
FTUS44 KSJT 211100
TAFSJT
TAF
KSJT 211132Z 2112/2212 04011KT P6SM OVC007
     FM211900 05013KT P6SM OVC015
     FM220400 06008KT 5SM -SHRA BR OVC007=



000
FTUS44 KSJT 211100
TAFABI
TAF
KABI 211132Z 2112/2212 03011KT P6SM OVC007
     FM211800 03010KT P6SM OVC015
     FM220600 04008KT 5SM -DZ BR OVC008=



000
FTUS44 KSJT 211100
TAFJCT
TAF
KJCT 211132Z 2112/2212 05010KT P6SM -DZ OVC006
     FM211500 06010KT 4SM -DZ BR OVC010
     FM211900 05010KT P6SM BKN015
     FM220100 05009KT 5SM -SHRA OVC015=



000
FTUS44 KSJT 211100
TAFABI
TAF
KABI 211132Z 2112/2212 03011KT P6SM OVC007
     FM211800 03010KT P6SM OVC015
     FM220600 04008KT 5SM -DZ BR OVC008=



000
FTUS44 KSJT 211100
TAFSJT
TAF
KSJT 211132Z 2112/2212 04011KT P6SM OVC007
     FM211900 05013KT P6SM OVC015
     FM220400 06008KT 5SM -SHRA BR OVC007=



000
FTUS44 KSJT 211100
TAFJCT
TAF
KJCT 211132Z 2112/2212 05010KT P6SM -DZ OVC006
     FM211500 06010KT 4SM -DZ BR OVC010
     FM211900 05010KT P6SM BKN015
     FM220100 05009KT 5SM -SHRA OVC015=



000
FTUS44 KSJT 211000 AAC
TAFJCT
TAF AMD
KJCT 211031Z 2111/2206 05010KT 6SM -RA BR OVC006
     FM211500 06010KT 4SM BR VCSH OVC008
     FM211900 05010KT P6SM BKN015
     FM220100 05009KT 5SM -SHRA OVC015=



000
FTUS44 KSJT 211000 AAC
TAFJCT
TAF AMD
KJCT 211031Z 2111/2206 05010KT 6SM -RA BR OVC006
     FM211500 06010KT 4SM BR VCSH OVC008
     FM211900 05010KT P6SM BKN015
     FM220100 05009KT 5SM -SHRA OVC015=



000
FTUS44 KSJT 210900 AAB
TAFJCT
TAF AMD
KJCT 210907Z 2109/2206 03010KT 6SM -RA BR OVC007
     FM211000 05010KT 3SM -RA BR OVC007
      TEMPO 2112/2114 2SM -DZ BR OVC004
     FM211500 06010KT 4SM BR VCSH OVC007
     FM211900 05010KT P6SM BKN015
     FM220100 05009KT 5SM -SHRA OVC015=



000
FTUS44 KSJT 210900 AAB
TAFJCT
TAF AMD
KJCT 210907Z 2109/2206 03010KT 6SM -RA BR OVC007
     FM211000 05010KT 3SM -RA BR OVC007
      TEMPO 2112/2114 2SM -DZ BR OVC004
     FM211500 06010KT 4SM BR VCSH OVC007
     FM211900 05010KT P6SM BKN015
     FM220100 05009KT 5SM -SHRA OVC015=



000
FTUS44 KSJT 210800 AAA
TAFSJT
TAF AMD
KSJT 210814Z 2108/2206 04011KT 4SM -DZ BR OVC006
     FM211700 05013KT 6SM -DZ BR OVC007
     FM212100 06011KT 6SM BR OVC015
     FM220300 06008KT 5SM -SHRA BR OVC007=



000
FTUS44 KSJT 210700 AAA
TAFJCT
TAF AMD
KJCT 210726Z 2107/2206 03010KT 4SM -RA BR SCT015
     FM211000 05010KT 3SM -RA BR OVC007
      TEMPO 2112/2114 2SM -DZ BR OVC004
     FM211500 06010KT 4SM BR VCSH OVC007
     FM211900 05010KT P6SM BKN015
     FM220100 05009KT 5SM -SHRA OVC015=



000
FTUS44 KSJT 210700 AAA
TAFJCT
TAF AMD
KJCT 210726Z 2107/2206 03010KT 4SM -RA BR SCT015
     FM211000 05010KT 3SM -RA BR OVC007
      TEMPO 2112/2114 2SM -DZ BR OVC004
     FM211500 06010KT 4SM BR VCSH OVC007
     FM211900 05010KT P6SM BKN015
     FM220100 05009KT 5SM -SHRA OVC015=



000
FTUS44 KSJT 210600 AAA
TAFABI
TAF AMD
KABI 210650Z 2107/2206 02012KT P6SM -DZ BKN008 OVC014
     FM210900 02010KT 6SM -SHRA BR OVC004
     FM211200 03011KT 5SM -DZ BR OVC007
     FM211800 03010KT P6SM OVC015=



000
FTUS44 KSJT 210600 AAA
TAFABI
TAF AMD
KABI 210650Z 2107/2206 02012KT P6SM -DZ BKN008 OVC014
     FM210900 02010KT 6SM -SHRA BR OVC004
     FM211200 03011KT 5SM -DZ BR OVC007
     FM211800 03010KT P6SM OVC015=



000
FTUS44 KSJT 210500 RRA
TAFJCT
TAF
KJCT 210548Z 2106/2206 03010KT 4SM -RA BR OVC015
     FM210900 05010KT 3SM -RA BR OVC007
      TEMPO 2112/2114 2SM -DZ BR OVC004
     FM211500 06010KT 4SM BR VCSH OVC007
     FM211900 05010KT P6SM BKN015
     FM220100 05009KT 5SM -SHRA OVC015=



000
FTUS44 KSJT 210500 RRA
TAFABI
TAF
KABI 210548Z 2106/2206 02012KT P6SM -DZ OVC014
     FM210900 02010KT 6SM -SHRA BR OVC004
     FM211200 03011KT 5SM -DZ BR OVC007
     FM211800 03010KT P6SM OVC015=



000
FTUS44 KSJT 210500 RRA
TAFSJT
TAF
KSJT 210548Z 2106/2206 04011KT 4SM -DZ BR OVC003
     FM211700 05013KT 6SM -DZ BR OVC007
     FM212100 06011KT 6SM BR OVC015
     FM220300 06008KT 5SM -SHRA BR OVC007=



000
FTUS44 KSJT 210500 RRA
TAFJCT
TAF
KJCT 210548Z 2106/2206 03010KT 4SM -RA BR OVC015
     FM210900 05010KT 3SM -RA BR OVC007
      TEMPO 2112/2114 2SM -DZ BR OVC004
     FM211500 06010KT 4SM BR VCSH OVC007
     FM211900 05010KT P6SM BKN015
     FM220100 05009KT 5SM -SHRA OVC015=



000
FTUS44 KSJT 210500 RRA
TAFABI
TAF
KABI 210548Z 2106/2206 02012KT P6SM -DZ OVC014
     FM210900 02010KT 6SM -SHRA BR OVC004
     FM211200 03011KT 5SM -DZ BR OVC007
     FM211800 03010KT P6SM OVC015=



000
FTUS44 KSJT 210500 RRA
TAFSJT
TAF
KSJT 210548Z 2106/2206 04011KT 4SM -DZ BR OVC003
     FM211700 05013KT 6SM -DZ BR OVC007
     FM212100 06011KT 6SM BR OVC015
     FM220300 06008KT 5SM -SHRA BR OVC007=



000
FTUS44 KSJT 210400 AAE
TAFJCT
TAF AMD
KJCT 210444Z 2105/2124 VRB06KT P6SM -TSRA SCT012 SCT040CB OVC110
     FM210700 05010KT 3SM -RA BR OVC006
     FM211300 06010KT 4SM BR VCSH OVC007
     FM211800 03007KT P6SM BKN015 PROB30 2118/2124 5SM TS BKN007CB=



000
FTUS44 KSJT 210400 AAE
TAFJCT
TAF AMD
KJCT 210444Z 2105/2124 VRB06KT P6SM -TSRA SCT012 SCT040CB OVC110
     FM210700 05010KT 3SM -RA BR OVC006
     FM211300 06010KT 4SM BR VCSH OVC007
     FM211800 03007KT P6SM BKN015 PROB30 2118/2124 5SM TS BKN007CB=



000
FTUS44 KSJT 210400 AAD
TAFSJT
TAF AMD
KSJT 210405Z 2104/2124 04010KT P6SM BKN005 OVC010
     FM210900 04009KT 2SM -DZ BR OVC005
     FM211400 05012KT 6SM BR OVC008
     FM212100 03010KT P6SM OVC015=



000
FTUS44 KSJT 210400 AAD
TAFSJT
TAF AMD
KSJT 210405Z 2104/2124 04010KT P6SM BKN005 OVC010
     FM210900 04009KT 2SM -DZ BR OVC005
     FM211400 05012KT 6SM BR OVC008
     FM212100 03010KT P6SM OVC015=



000
FTUS44 KSJT 210400 AAC
TAFABI
TAF AMD
KABI 210403Z 2104/2124 02010KT P6SM OVC010
     FM210600 01008KT P6SM OVC004
     FM211200 03011KT 6SM BR OVC008
     FM211800 03010KT P6SM OVC015=



000
FTUS44 KSJT 210300 AAD
TAFJCT
TAF AMD
KJCT 210329Z 2103/2124 VRB06KT P6SM SCT012 BKN035 OVC110
      TEMPO 2103/2105 VRB25G35KT 2SM TSRA BR OVC025CB
     FM210600 05010KT 3SM -RA BR OVC006
     FM211300 06010KT 4SM BR VCSH OVC007
     FM211800 03007KT P6SM BKN015 PROB30 2118/2124 5SM TS BKN007CB=



000
FTUS44 KSJT 210300 AAC
TAFJCT
TAF AMD
KJCT 210326Z 2103/2124 VRB06KT P6SM SCT012 BKN035 OVC110
      TEMPO 2103/2105 VRB25G35KT 3SM TSRA BR OVC035CB
     FM210600 05010KT 3SM -RA BR OVC006
     FM211300 06010KT 4SM BR VCSH OVC007
     FM211800 03007KT P6SM BKN015 PROB30 2118/2124 5SM TS BKN007CB=



000
FTUS44 KSJT 210300 AAB
TAFABI
TAF AMD
KABI 210310Z 2103/2124 01010KT P6SM OVC009
     FM210600 01008KT P6SM OVC004
     FM211200 03011KT 6SM BR OVC008
     FM211800 03010KT P6SM OVC015=



000
FTUS44 KSJT 210300 AAB
TAFJCT
TAF AMD
KJCT 210308Z 2103/2124 VRB06KT P6SM -TSRA FEW050 BKN060CB
     FM210600 05010KT 3SM -RA BR OVC006
     FM211300 06010KT 4SM BR VCSH OVC007
     FM211800 03007KT P6SM BKN015 PROB30 2118/2124 5SM TS BKN007CB=



000
FTUS44 KSJT 210200 AAC
TAFSJT
TAF AMD
KSJT 210234Z 2103/2124 04010KT P6SM OVC009
     FM210900 04009KT 2SM BR OVC005
     FM211400 05012KT 6SM BR OVC008
     FM212100 03010KT P6SM OVC015=



000
FTUS44 KSJT 210200 AAB
TAFSJT
TAF AMD
KSJT 210203Z 2102/2124 02010KT P6SM OVC011
     FM210600 03010KT P6SM OVC008
     FM210900 04009KT 2SM BR OVC005
     FM211400 05012KT 6SM BR OVC008
     FM212100 03010KT P6SM OVC015=



000
FTUS44 KSJT 210200 AAB
TAFSJT
TAF AMD
KSJT 210203Z 2102/2124 02010KT P6SM OVC011
     FM210600 03010KT P6SM OVC008
     FM210900 04009KT 2SM BR OVC005
     FM211400 05012KT 6SM BR OVC008
     FM212100 03010KT P6SM OVC015=



000
FTUS44 KSJT 210100 AAA
TAFJCT
TAF AMD
KJCT 210156Z 2102/2124 03011G17KT P6SM FEW050 BKN060
     FM210600 05010KT 3SM -RA BR OVC006
     FM211300 06010KT 4SM BR VCSH OVC007
     FM211800 03007KT P6SM BKN015 PROB30 2118/2124 5SM TS BKN007CB=



000
FTUS44 KSJT 210100 AAA
TAFJCT
TAF AMD
KJCT 210156Z 2102/2124 03011G17KT P6SM FEW050 BKN060
     FM210600 05010KT 3SM -RA BR OVC006
     FM211300 06010KT 4SM BR VCSH OVC007
     FM211800 03007KT P6SM BKN015 PROB30 2118/2124 5SM TS BKN007CB=



000
FTUS44 KSJT 210000 AAA
TAFSJT
TAF AMD
KSJT 210039Z 2101/2124 02010KT P6SM OVC010
     FM210200 03010KT P6SM OVC008
     FM210900 04009KT 2SM BR OVC005
     FM211400 05012KT 6SM BR OVC008
     FM212100 03010KT P6SM OVC015=



000
FTUS44 KSJT 210000 AAA
TAFSJT
TAF AMD
KSJT 210039Z 2101/2124 02010KT P6SM OVC010
     FM210200 03010KT P6SM OVC008
     FM210900 04009KT 2SM BR OVC005
     FM211400 05012KT 6SM BR OVC008
     FM212100 03010KT P6SM OVC015=



000
FTUS44 KSJT 210000 AAA
TAFABI
TAF AMD
KABI 210008Z 2100/2124 01011G17KT P6SM OVC006
     FM210300 01011KT 3SM -DZ BR OVC004
     FM211200 03011KT 6SM BR OVC008
     FM211800 03010KT P6SM OVC015=



000
FTUS44 KSJT 210000 AAA
TAFABI
TAF AMD
KABI 210008Z 2100/2124 01011G17KT P6SM OVC006
     FM210300 01011KT 3SM -DZ BR OVC004
     FM211200 03011KT 6SM BR OVC008
     FM211800 03010KT P6SM OVC015=



000
FTUS44 KSJT 202300
TAFABI
TAF
KABI 202323Z 2100/2124 01011KT 2SM BR OVC004
     FM210200 01011KT 3SM -DZ BR OVC004
     FM211200 03011KT 6SM BR OVC008
     FM211800 03010KT P6SM OVC015=



000
FTUS44 KSJT 202300
TAFJCT
TAF
KJCT 202323Z 2100/2124 09010KT P6SM FEW050 BKN060
     FM210300 05010KT 3SM -RA BR OVC006
     FM211300 06010KT 4SM BR VCSH OVC007
     FM211800 03007KT P6SM BKN015 PROB30 2118/2124 5SM TS BKN007CB=



000
FTUS44 KSJT 202300
TAFSJT
TAF
KSJT 202323Z 2100/2124 01011KT P6SM OVC011
     FM210100 02011KT 4SM -SHRA OVC004
     FM211400 05012KT 6SM BR OVC008
     FM212100 03010KT P6SM OVC015=



000
FTUS44 KSJT 202300
TAFABI
TAF
KABI 202323Z 2100/2124 01011KT 2SM BR OVC004
     FM210200 01011KT 3SM -DZ BR OVC004
     FM211200 03011KT 6SM BR OVC008
     FM211800 03010KT P6SM OVC015=



000
FTUS44 KSJT 202300
TAFJCT
TAF
KJCT 202323Z 2100/2124 09010KT P6SM FEW050 BKN060
     FM210300 05010KT 3SM -RA BR OVC006
     FM211300 06010KT 4SM BR VCSH OVC007
     FM211800 03007KT P6SM BKN015 PROB30 2118/2124 5SM TS BKN007CB=



000
FTUS44 KSJT 202300
TAFSJT
TAF
KSJT 202323Z 2100/2124 01011KT P6SM OVC011
     FM210100 02011KT 4SM -SHRA OVC004
     FM211400 05012KT 6SM BR OVC008
     FM212100 03010KT P6SM OVC015=



000
FTUS44 KSJT 202300 AAB
TAFJCT
TAF AMD
KJCT 202311Z 2023/2118 09010KT P6SM FEW050 BKN060
     FM210300 05010KT 3SM -RA BR OVC006
     FM211300 06010KT 4SM BR VCSH OVC007=



000
FTUS44 KSJT 202300 AAB
TAFJCT
TAF AMD
KJCT 202311Z 2023/2118 09010KT P6SM FEW050 BKN060
     FM210300 05010KT 3SM -RA BR OVC006
     FM211300 06010KT 4SM BR VCSH OVC007=



000
FTUS44 KSJT 202300 AAC
TAFSJT
TAF AMD
KSJT 202309Z 2023/2118 01011KT P6SM OVC011
     FM210100 02011KT 4SM -SHRA OVC004
     FM211400 05012KT 6SM BR OVC008=



000
FTUS44 KSJT 202300 AAC
TAFSJT
TAF AMD
KSJT 202309Z 2023/2118 01011KT P6SM OVC011
     FM210100 02011KT 4SM -SHRA OVC004
     FM211400 05012KT 6SM BR OVC008=



000
FTUS44 KSJT 202300 AAB
TAFABI
TAF AMD
KABI 202305Z 2023/2118 01011KT 2SM BR OVC004
     FM210200 01011KT 3SM -DZ BR OVC004
     FM211200 03011KT 6SM BR OVC008=



000
FTUS44 KSJT 202300 AAB
TAFABI
TAF AMD
KABI 202305Z 2023/2118 01011KT 2SM BR OVC004
     FM210200 01011KT 3SM -DZ BR OVC004
     FM211200 03011KT 6SM BR OVC008=



000
FTUS44 KSJT 202200 AAB
TAFSJT
TAF AMD
KSJT 202202Z 2022/2118 03011G17KT P6SM BKN013 BKN035 OVC050
     FM210100 02011KT 4SM -SHRA OVC004
     FM211400 05012KT 6SM BR OVC008=



000
FTUS44 KSJT 202200 AAB
TAFSJT
TAF AMD
KSJT 202202Z 2022/2118 03011G17KT P6SM BKN013 BKN035 OVC050
     FM210100 02011KT 4SM -SHRA OVC004
     FM211400 05012KT 6SM BR OVC008=



000
FTUS44 KSJT 202100 AAA
TAFJCT
TAF AMD
KJCT 202144Z 2022/2118 12008KT P6SM VCTS BKN035CB
     FM210200 05012KT 3SM -RA BR OVC006
     FM211300 06010KT 4SM BR VCSH OVC007=



000
FTUS44 KSJT 202100 AAA
TAFABI
TAF AMD
KABI 202130Z 2022/2118 36011KT 3SM BR VCSH OVC005
     FM202300 02011KT 4SM BR VCSH BKN012
     FM210200 01008KT 3SM -DZ BR VCSH OVC007
     FM211200 03011KT 6SM BR OVC008=



000
FTUS44 KSJT 202000 AAA
TAFSJT
TAF AMD
KSJT 202027Z 2020/2118 04013G20KT P6SM VCSH BKN025
     FM202200 03012G17KT 5SM BR VCTS BKN009CB
     FM210100 02011KT 4SM -SHRA OVC004
     FM211400 05012KT 6SM BR OVC008=



000
FTUS44 KSJT 201700
TAFABI
TAF
KABI 201739Z 2018/2118 01013KT 4SM BR VCSH OVC006
      TEMPO 2018/2020 2SM -SHRA BR OVC004
     FM202300 02011KT 4SM BR VCSH BKN012
     FM210200 01008KT 3SM -DZ BR VCSH OVC007
     FM211200 03011KT 6SM BR OVC008=



000
FTUS44 KSJT 201700
TAFSJT
TAF
KSJT 201739Z 2018/2118 09008KT P6SM VCSH BKN025
     FM202000 04012KT 5SM BR VCTS BKN009CB
     FM210100 02011KT 4SM -SHRA OVC004
     FM211400 05012KT 6SM BR OVC008=



000
FTUS44 KSJT 201700
TAFJCT
TAF
KJCT 201739Z 2018/2118 12008KT P6SM VCSH BKN018
     FM201900 10008KT P6SM -SHRA BKN020
     FM202200 08009KT 6SM BR VCTS BKN035CB
     FM210200 05012KT 3SM -RA BR OVC006
     FM211300 06010KT 4SM BR VCSH OVC007=



000
FTUS44 KSJT 201500 AAB
TAFABI
TAF AMD
KABI 201559Z 2016/2112 01013KT 2SM -SHRA BR BKN006
      TEMPO 2016/2017 1/2SM -RA FG OVC002
     FM201800 01012KT 5SM BR VCSH OVC009
     FM210000 02011KT P6SM -SHRA BKN012=



000
FTUS44 KSJT 201500 AAA
TAFABI
TAF AMD
KABI 201539Z 2016/2112 12009KT P6SM VCSH BKN015
     FM201600 02010KT P6SM VCSH BKN012
     FM201700 01012KT P6SM VCSH OVC009
     FM210000 02011KT P6SM -SHRA BKN012=



000
FTUS44 KSJT 201500 AAA
TAFSJT
TAF AMD
KSJT 201535Z 2016/2112 08007KT P6SM VCSH OVC018
     FM201630 09008KT P6SM VCSH BKN025
     FM201800 06011KT P6SM -SHRA SCT025 BKN035
     FM202200 02010KT P6SM VCTS BKN030CB
     FM210200 01010KT P6SM VCSH BKN020=



000
FTUS44 KSJT 201500 AAA
TAFSJT
TAF AMD
KSJT 201535Z 2016/2112 08007KT P6SM VCSH OVC018
     FM201630 09008KT P6SM VCSH BKN025
     FM201800 06011KT P6SM -SHRA SCT025 BKN035
     FM202200 02010KT P6SM VCTS BKN030CB
     FM210200 01010KT P6SM VCSH BKN020=



000
FTUS44 KSJT 201500 AAA
TAFJCT
TAF AMD
KJCT 201533Z 2016/2112 17007KT 6SM BR BKN025
     FM201800 16008KT P6SM VCSH BKN035
     FM202300 08007KT P6SM VCTS BKN040CB
     FM210300 05007KT P6SM BKN030=



000
FTUS44 KSJT 201100
TAFJCT
TAF
KJCT 201140Z 2012/2112 16007KT P6SM OVC015
     FM201600 17008KT P6SM BKN025
     FM201800 16008KT P6SM BKN040
     FM202300 11007KT P6SM VCTS BKN040CB
     FM210300 05007KT P6SM BKN030=



000
FTUS44 KSJT 201100
TAFSJT
TAF
KSJT 201140Z 2012/2112 14005KT P6SM OVC025
     FM201400 17008KT P6SM OVC020
     FM201800 16010KT P6SM BKN030
     FM202200 01008KT P6SM VCTS BKN030CB
     FM210200 01010KT P6SM VCSH BKN020=



000
FTUS44 KSJT 201100
TAFABI
TAF
KABI 201140Z 2012/2112 01005KT P6SM VCSH BKN015
     FM201400 17005KT P6SM OVC009
     FM201700 01008KT P6SM VCSH BKN020
     FM210000 02011KT P6SM BKN030=



000
FTUS44 KSJT 201100
TAFJCT
TAF
KJCT 201140Z 2012/2112 16007KT P6SM OVC015
     FM201600 17008KT P6SM BKN025
     FM201800 16008KT P6SM BKN040
     FM202300 11007KT P6SM VCTS BKN040CB
     FM210300 05007KT P6SM BKN030=



000
FTUS44 KSJT 201100
TAFSJT
TAF
KSJT 201140Z 2012/2112 14005KT P6SM OVC025
     FM201400 17008KT P6SM OVC020
     FM201800 16010KT P6SM BKN030
     FM202200 01008KT P6SM VCTS BKN030CB
     FM210200 01010KT P6SM VCSH BKN020=



000
FTUS44 KSJT 201100
TAFABI
TAF
KABI 201140Z 2012/2112 01005KT P6SM VCSH BKN015
     FM201400 17005KT P6SM OVC009
     FM201700 01008KT P6SM VCSH BKN020
     FM210000 02011KT P6SM BKN030=



000
FTUS44 KSJT 200500
TAFABI
TAF
KABI 200538Z 2006/2106 16010KT P6SM SCT150
     FM200800 17009KT P6SM BKN025
     FM201800 01008KT P6SM BKN040 PROB30 2018/2024 TSRA BKN040CB=



000
FTUS44 KSJT 200500
TAFSJT
TAF
KSJT 200538Z 2006/2106 14008KT P6SM FEW035 SCT050 OVC150
     FM200900 17008KT P6SM OVC020
     FM201800 16010KT P6SM BKN040
     FM202300 01008KT P6SM BKN040 PROB30 2023/2103 TSRA BKN040CB=



000
FTUS44 KSJT 200500
TAFJCT
TAF
KJCT 200538Z 2006/2106 16011G17KT P6SM BKN025
     FM201100 16007KT P6SM BKN015
     FM201600 17008KT P6SM BKN025
     FM201800 16008KT P6SM BKN040=



000
FTUS44 KSJT 200400 AAB
TAFJCT
TAF AMD
KJCT 200418Z 2004/2024 16011G17KT P6SM BKN025
     FM201100 16007KT P6SM BKN015
     FM201600 17008KT P6SM BKN025
     FM201800 16008KT P6SM BKN040=



000
FTUS44 KSJT 200400 AAB
TAFJCT
TAF AMD
KJCT 200418Z 2004/2024 16011G17KT P6SM BKN025
     FM201100 16007KT P6SM BKN015
     FM201600 17008KT P6SM BKN025
     FM201800 16008KT P6SM BKN040=



000
FTUS44 KSJT 200300 AAA
TAFJCT
TAF AMD
KJCT 200307Z 2003/2024 15010KT P6SM OVC150
     FM200600 16009KT P6SM OVC015
     FM200900 16007KT P6SM BKN008
     FM201600 17008KT P6SM BKN025
     FM201800 16008KT P6SM BKN040=



000
FTUS44 KSJT 200300 AAA
TAFSJT
TAF AMD
KSJT 200306Z 2003/2024 14010KT P6SM OVC150
     FM200900 17008KT P6SM OVC020
     FM201700 16010KT P6SM BKN040=



000
FTUS44 KSJT 200300 AAA
TAFABI
TAF AMD
KABI 200301Z 2003/2024 15010KT P6SM BKN250
     FM200800 17009KT P6SM BKN025
     FM201700 01008KT P6SM VCTS BKN040CB=



    US Dept of Commerce
    National Oceanic and Atmospheric Administration
    National Weather Service
    1325 East West Highway
    Silver Spring, MD 20910
    Page Author: NWS Internet Services Team
Disclaimer
Information Quality
Credits
Glossary
Privacy Policy
Freedom of Information Act (FOIA)
About Us
Career Opportunities